Latest Coastal Weather Observations for Rosslyn Bay Harbour

IDQ60701

Issued at 5:12 pm EST Monday 27 April 2015 (issued every 10 minutes, with the page automatically refreshed every 10 minutes)

About coastal observations | Map of coastal stations | Coastal observations for QLD | Marine services | Other Formats
Station Details ID: 033208 Name: ROSSLYN BAY NTC AWS Lat: -23.16 Lon: 150.79 Height: 0.0 m
Data from the previous 72 hours. | See also: Recent months for locations in Queensland
Date/Time
EST
Temp

°C
Wind Pressure Rain
since 9am
mm
Weather Cloud Vis
km
Sea
Height
m
Swell
Dir
 
Speed
knots
Gust
knots
hPa Trend Height
m
Period
s
Dir
27/05:00pm 22.5 ENE 6 10 1015.9 - - - - - - - - -
27/04:30pm 22.5 NE 6 8 1015.8 - - - - - - - - -
27/04:00pm 23.1 NE 5 7 1015.4 - - - - - - - - -
27/03:30pm 23.2 NE 4 7 1015.2 - - - - - - - - -
27/03:00pm 23.6 ENE 2 6 1015.2 - - - - - - - - -
27/02:30pm 23.1 WNW 2 6 1015.2 - - - - - - - - -
27/02:00pm 22.7 E 2 6 1015.4 - - - - - - - - -
27/01:30pm 22.3 W 2 5 1015.6 - - - - - - - - -
27/01:00pm 22.5 NE 2 8 1015.9 - - - - - - - - -
27/12:30pm 22.1 S 5 9 1016.4 - - - - - - - - -
27/12:00pm 21.2 S 5 9 1016.7 - - - - - - - - -
27/11:30am 20.8 S 7 10 1017.1 - - - - - - - - -
27/11:00am 21.4 S 5 9 1017.8 - - - - - - - - -
27/10:30am 21.1 SSW 4 8 1018.3 - - - - - - - - -
27/10:00am 20.9 S 4 8 1018.6 - - - - - - - - -
27/09:30am 20.1 S 6 11 1018.8 - - - - - - - - -
27/09:00am 19.8 S 5 10 1018.8 - - - - - - - - -
27/08:30am 18.8 S 3 8 1018.8 - - - - - - - - -
27/08:00am 17.7 SSW 4 6 1018.5 - - - - - - - - -
27/07:30am 16.3 SSW 6 9 1018.2 - - - - - - - - -
27/07:00am 16.0 SSW 5 7 1017.7 - - - - - - - - -
27/06:30am 15.0 SSW 5 7 1017.5 - - - - - - - - -
27/06:00am 14.8 SSW 4 7 1017.3 - - - - - - - - -
27/05:30am 15.1 SSW 5 8 1016.9 - - - - - - - - -
27/05:00am 15.1 SSW 4 8 1016.5 - - - - - - - - -
27/04:30am 15.5 SSW 6 8 1016.2 - - - - - - - - -
27/04:00am 16.2 SSW 7 10 1016.3 - - - - - - - - -
27/03:30am 17.1 SSW 7 12 1016.4 - - - - - - - - -
27/03:00am 17.2 SSW 7 10 1016.3 - - - - - - - - -
27/02:30am 16.9 SSW 7 9 1016.2 - - - - - - - - -
27/02:00am 17.0 SSW 5 8 1016.3 - - - - - - - - -
27/01:30am 16.9 S 5 8 1016.6 - - - - - - - - -
27/01:00am 17.3 S 6 9 1016.6 - - - - - - - - -
27/12:30am 18.0 S 7 10 1016.8 - - - - - - - - -
27/12:00am 18.7 SSW 8 13 1016.8 - - - - - - - - -
 
Date/Time
EST
Temp

°C
Wind Pressure Rain
since 9am
mm
Weather Cloud Vis
km
Sea
Height
m
Swell
Dir
 
Speed
knots
Gust
knots
hPa Trend Height
m
Period
s
Dir
26/11:30pm 19.4 SSW 9 13 1016.9 - - - - - - - - -
26/11:00pm 19.3 SSW 8 11 1017.0 - - - - - - - - -
26/10:30pm 19.1 SSW 7 11 1016.8 - - - - - - - - -
26/10:00pm 19.5 S 6 9 1016.9 - - - - - - - - -
26/09:30pm 20.4 SSW 6 10 1016.7 - - - - - - - - -
26/09:00pm 21.6 SSW 7 11 1016.5 - - - - - - - - -
26/08:30pm 21.2 SSW 6 8 1016.2 - - - - - - - - -
26/08:00pm 21.2 SSW 5 8 1015.9 - - - - - - - - -
26/07:30pm 22.2 SSW 6 9 1015.4 - - - - - - - - -
26/07:00pm 22.2 SSW 5 7 1014.9 - - - - - - - - -
26/06:30pm 23.2 SSW 5 7 1014.5 - - - - - - - - -
26/06:00pm 24.1 SSW 4 6 1013.9 - - - - - - - - -
26/05:30pm 24.9 SSW 5 8 1013.4 - - - - - - - - -
26/05:00pm 25.7 SSW 6 11 1012.8 - - - - - - - - -
26/04:30pm 26.4 SSW 7 13 1012.4 - - - - - - - - -
26/04:00pm 26.8 SSW 6 10 1012.2 - - - - - - - - -
26/03:30pm 26.7 SW 7 11 1012.1 - - - - - - - - -
26/03:00pm 26.5 SSW 8 12 1012.1 - - - - - - - - -
26/02:30pm 26.3 SSW 7 14 1012.0 - - - - - - - - -
26/02:00pm 26.3 SW 6 12 1011.9 - - - - - - - - -
26/01:30pm 25.6 SSW 7 14 1012.2 - - - - - - - - -
26/01:00pm 25.8 SSW 8 16 1012.3 - - - - - - - - -
26/12:30pm 24.9 SW 7 13 1012.6 - - - - - - - - -
26/12:00pm 24.1 SSW 7 12 1012.9 - - - - - - - - -
26/11:30am 23.6 S 6 11 1013.4 - - - - - - - - -
26/11:00am 23.0 SSW 7 14 1013.8 - - - - - - - - -
26/10:30am 22.8 SSW 7 14 1014.1 - - - - - - - - -
26/10:00am 22.3 SSW 8 13 1014.5 - - - - - - - - -
26/09:30am 22.0 SSW 8 16 1014.7 - - - - - - - - -
26/09:00am 21.5 S 7 12 1014.6 - - - - - - - - -
26/08:30am 21.6 SSW 8 12 1014.4 - - - - - - - - -
26/08:00am 21.3 SSW 6 10 1014.3 - - - - - - - - -
26/07:30am 20.7 SSW 6 11 1013.9 - - - - - - - - -
26/07:00am 20.2 SSW 3 6 1013.5 - - - - - - - - -
26/06:30am 19.4 SSW 3 4 1013.1 - - - - - - - - -
26/06:00am 19.6 W 3 4 1012.4 - - - - - - - - -
26/05:30am 20.3 WSW 4 5 1012.0 - - - - - - - - -
26/05:00am 21.6 SW 6 9 1011.6 - - - - - - - - -
26/04:30am 21.9 SW 5 8 1011.3 - - - - - - - - -
26/04:00am 21.9 SW 6 9 1011.1 - - - - - - - - -
26/03:30am 22.3 SW 7 11 1010.9 - - - - - - - - -
26/03:00am 22.3 WSW 7 11 1010.8 - - - - - - - - -
26/02:30am 22.3 WSW 8 12 1010.6 - - - - - - - - -
26/02:00am 22.1 WSW 7 11 1010.7 - - - - - - - - -
26/01:30am 22.4 WSW 6 11 1010.9 - - - - - - - - -
26/01:00am 22.3 WSW 5 9 1010.9 - - - - - - - - -
26/12:30am 22.4 WNW 4 6 1010.9 - - - - - - - - -
26/12:00am 22.4 NW 4 6 1011.0 - - - - - - - - -
 
Date/Time
EST
Temp

°C
Wind Pressure Rain
since 9am
mm
Weather Cloud Vis
km
Sea
Height
m
Swell
Dir
 
Speed
knots
Gust
knots
hPa Trend Height
m
Period
s
Dir
25/11:30pm 22.3 SW 4 7 1011.0 - - - - - - - - -
25/11:00pm 22.7 WSW 4 6 1011.3 - - - - - - - - -
25/10:30pm 23.1 WSW 4 6 1011.4 - - - - - - - - -
25/10:00pm 23.1 WSW 2 5 1011.3 - - - - - - - - -
25/09:30pm 23.6 WSW 2 4 1011.4 - - - - - - - - -
25/09:00pm 24.4 N 2 4 1011.2 - - - - - - - - -
25/08:30pm 24.4 N 4 6 1011.3 - - - - - - - - -
25/08:00pm 24.5 N 3 5 1011.0 - - - - - - - - -
25/07:30pm 25.0 N 6 10 1010.6 - - - - - - - - -
25/07:00pm 25.2 NNE 6 9 1010.1 - - - - - - - - -
25/06:30pm 25.3 NNE 7 10 1009.6 - - - - - - - - -
25/06:00pm 25.3 NNE 7 11 1009.2 - - - - - - - - -
25/05:30pm 25.3 NNE 6 9 1009.1 - - - - - - - - -
25/05:00pm 25.5 NNE 8 10 1008.8 - - - - - - - - -
25/04:30pm 25.4 NE 5 9 1008.8 - - - - - - - - -
25/04:00pm 25.3 NNE 6 9 1008.5 - - - - - - - - -
25/03:30pm 25.2 NE 6 9 1008.6 - - - - - - - - -
25/03:00pm 25.6 ENE 6 8 1008.5 - - - - - - - - -
25/02:30pm 26.1 ENE 4 9 1008.5 - - - - - - - - -
25/02:00pm 26.0 ENE 5 9 1008.7 - - - - - - - - -
25/01:30pm 26.0 ENE 3 7 1009.0 - - - - - - - - -
25/01:00pm 26.1 ENE 4 8 1009.3 - - - - - - - - -
25/12:30pm 25.5 ENE 4 7 1009.6 - - - - - - - - -
25/12:00pm 24.5 ENE 6 8 1010.0 - - - - - - - - -
25/11:30am 24.4 NE 5 6 1010.5 - - - - - - - - -
25/11:00am 24.3 NE 4 5 1011.0 - - - - - - - - -
25/10:30am 23.9 NE 4 6 1011.3 - - - - - - - - -
25/10:00am 23.8 NNE 4 5 1011.6 - - - - - - - - -
25/09:30am 23.8 NNW 5 6 1011.6 - - - - - - - - -
25/09:00am 23.2 NW 2 4 1011.7 - - - - - - - - -
25/08:30am 22.3 NNW 1 3 1011.8 - - - - - - - - -
25/08:00am 21.4 WNW 1 2 1011.5 - - - - - - - - -
25/07:30am 20.3 WNW 2 3 1011.2 - - - - - - - - -
25/07:00am 19.6 WNW 1 2 1011.0 - - - - - - - - -
25/06:30am 19.4 W 1 2 1010.7 - - - - - - - - -
25/06:00am 19.2 WSW 2 2 1010.4 - - - - - - - - -
25/05:30am 19.8 W 1 2 1010.3 - - - - - - - - -
25/05:00am 20.4 W 1 1 1010.1 - - - - - - - - -
25/04:30am 19.8 SW 2 3 1010.0 - - - - - - - - -
25/04:00am 19.7 SW 2 3 1009.7 - - - - - - - - -
25/03:30am 19.8 SW 2 3 1009.9 - - - - - - - - -
25/03:00am 20.6 W 2 4 1010.0 - - - - - - - - -
25/02:30am 20.4 WNW 3 4 1009.9 - - - - - - - - -
25/02:00am 21.0 SSW 1 2 1010.2 - - - - - - - - -
25/01:30am 21.1 SSW 1 3 1010.1 - - - - - - - - -
25/01:00am 21.2 SSW 1 2 1010.3 - - - - - - - - -
25/12:30am 21.2 SW 1 3 1010.4 - - - - - - - - -
25/12:00am 21.2 SW 2 3 1010.5 - - - - - - - - -
 
Date/Time
EST
Temp

°C
Wind Pressure Rain
since 9am
mm
Weather Cloud Vis
km
Sea
Height
m
Swell
Dir
 
Speed
knots
Gust
knots
hPa Trend Height
m
Period
s
Dir
24/11:30pm 21.2 WSW 2 4 1010.4 - - - - - - - - -
24/11:00pm 21.6 W 2 3 1010.5 - - - - - - - - -
24/10:30pm 22.6 NW 3 6 1010.4 - - - - - - - - -
24/10:00pm 23.0 NNW 5 6 1010.8 - - - - - - - - -
24/09:30pm 23.1 N 4 7 1010.8 - - - - - - - - -
24/09:00pm 23.2 N 4 6 1010.6 - - - - - - - - -
24/08:30pm 23.4 N 4 7 1010.6 - - - - - - - - -
24/08:00pm 23.5 N 4 7 1010.4 - - - - - - - - -
24/07:30pm 23.6 N 6 8 1010.1 - - - - - - - - -
24/07:00pm 23.9 N 6 8 1009.6 - - - - - - - - -
24/06:30pm 24.1 N 7 10 1009.2 - - - - - - - - -
24/06:00pm 24.4 N 9 12 1008.9 - - - - - - - - -
24/05:30pm 24.5 NNE 9 11 1008.7 - - - - - - - - -

Other Formats:

Comma delimited format used in spreadsheet applications
http://www.bom.gov.au/fwo/IDQ60701/IDQ60701.95298.axf

JavaScript Object Notation format (JSON) in row-major order
http://www.bom.gov.au/fwo/IDQ60701/IDQ60701.95298.json